Terminal Aerodrome Forecast
Issued by NWS Wilmington, OH

Current Version | Previous Version | Graphics & Text | Print | Product List | Glossary On
Versions: 1 2 3 4 5 6 7 8 9 10 11 12 13
039
FTUS41 KILN 220523
TAFCMH
TAF
KCMH 220523Z 2206/2306 VRB03KT P6SM SKC
      TEMPO 2209/2213 4SM BR
     FM221400 07004KT P6SM FEW050
     FM222300 00000KT P6SM SKC=

USA.gov is the U.S. government's official web portal to all federal, state and local government web resources and services.